createdAt,value
2018-04-11T00:00:56.509Z,2.50
2018-04-11T00:01:56.570Z,2.60
2018-04-11T00:02:56.628Z,2.00
2018-04-11T00:03:56.685Z,2.70
2018-04-11T00:04:56.745Z,1.90
2018-04-11T00:05:56.803Z,2.70
2018-04-11T00:06:56.862Z,1.90
2018-04-11T00:07:56.919Z,2.70
2018-04-11T00:08:56.978Z,3.80
2018-04-11T00:09:57.038Z,2.00
2018-04-11T00:10:57.097Z,3.40
2018-04-11T00:11:57.157Z,3.50
2018-04-11T00:12:57.216Z,2.30
2018-04-11T00:13:57.277Z,2.30
2018-04-11T00:14:57.336Z,2.70
2018-04-11T00:15:57.441Z,2.00
2018-04-11T00:16:57.450Z,4.40
2018-04-11T00:17:57.510Z,2.30
2018-04-11T00:18:57.569Z,2.60
2018-04-11T00:19:57.628Z,2.50
2018-04-11T00:20:57.687Z,2.70
2018-04-11T00:21:57.747Z,2.60
2018-04-11T00:22:57.804Z,2.00
2018-04-11T00:23:57.864Z,2.70
2018-04-11T00:24:57.922Z,3.20
2018-04-11T00:25:57.982Z,2.50
2018-04-11T00:26:58.040Z,3.10
2018-04-11T00:27:58.102Z,3.50
2018-04-11T00:28:58.160Z,2.40
2018-04-11T00:29:58.216Z,3.60
2018-04-11T00:30:58.272Z,3.20
2018-04-11T00:31:58.331Z,2.20
2018-04-11T00:32:58.389Z,2.70
2018-04-11T00:33:58.447Z,2.60
2018-04-11T00:34:58.505Z,3.40
2018-04-11T00:35:58.564Z,2.10
2018-04-11T00:36:58.622Z,3.40
2018-04-11T00:37:58.680Z,3.10
2018-04-11T00:38:58.739Z,2.90
2018-04-11T00:39:58.798Z,2.50
2018-04-11T00:40:58.858Z,2.70
2018-04-11T00:41:58.921Z,2.50
2018-04-11T00:42:58.975Z,3.40
2018-04-11T00:43:59.033Z,2.80
2018-04-11T00:44:59.244Z,4.00
2018-04-11T00:45:59.150Z,2.30
2018-04-11T00:46:59.214Z,3.00
2018-04-11T00:47:59.270Z,3.60
2018-04-11T00:48:59.328Z,2.80
2018-04-11T00:49:59.388Z,2.30
2018-04-11T00:50:59.445Z,2.80
2018-04-11T00:51:59.505Z,6.10
2018-04-11T00:52:59.580Z,1.90
2018-04-11T00:53:59.624Z,3.20
2018-04-11T00:54:59.681Z,4.40
2018-04-11T00:55:59.742Z,2.30
2018-04-11T00:56:59.799Z,2.40
2018-04-11T00:57:59.873Z,1.90
2018-04-11T00:58:59.916Z,2.20
2018-04-11T00:59:59.975Z,2.30
2018-04-11T01:01:00.037Z,3.00
2018-04-11T01:02:00.093Z,5.00
2018-04-11T01:03:00.150Z,2.80
2018-04-11T01:04:00.209Z,4.90
2018-04-11T01:05:00.269Z,2.10
2018-04-11T01:06:00.329Z,3.00
2018-04-11T01:07:00.385Z,2.10
2018-04-11T01:08:00.444Z,2.60
2018-04-11T01:09:00.512Z,3.70
2018-04-11T01:10:00.562Z,4.00
2018-04-11T01:11:00.620Z,2.00
2018-04-11T01:12:00.679Z,1.90
2018-04-11T01:13:00.737Z,2.20
2018-04-11T01:14:00.798Z,4.70
2018-04-11T01:15:00.855Z,2.10
2018-04-11T01:16:00.914Z,2.50
2018-04-11T01:17:00.974Z,3.90
2018-04-11T01:18:01.031Z,2.30
2018-04-11T01:19:01.090Z,2.50
2018-04-11T01:20:01.149Z,2.60
2018-04-11T01:21:01.209Z,2.40
2018-04-11T01:22:01.268Z,3.30
2018-04-11T01:23:01.327Z,3.30
2018-04-11T01:24:01.386Z,2.20
2018-04-11T01:25:01.444Z,3.20
2018-04-11T01:26:01.505Z,1.90
2018-04-11T01:27:01.560Z,3.40
2018-04-11T01:28:01.621Z,2.60
2018-04-11T01:29:01.677Z,3.80
2018-04-11T01:30:01.738Z,1.30
2018-04-11T01:31:01.796Z,2.50
2018-04-11T01:32:01.865Z,1.70
2018-04-11T01:33:01.914Z,2.30
2018-04-11T01:34:01.973Z,2.10
2018-04-11T01:35:02.030Z,2.50
2018-04-11T01:36:02.090Z,2.50
2018-04-11T01:37:02.150Z,2.60
2018-04-11T01:38:02.212Z,2.60
2018-04-11T01:39:02.270Z,1.80
2018-04-11T01:40:02.324Z,1.50
2018-04-11T01:41:02.383Z,1.60
2018-04-11T01:42:02.441Z,2.20
2018-04-11T01:43:02.500Z,1.70
2018-04-11T01:44:02.558Z,2.90
2018-04-11T01:45:02.616Z,1.90
2018-04-11T01:46:02.675Z,2.30
2018-04-11T01:47:02.737Z,1.80
2018-04-11T01:48:02.793Z,2.40
2018-04-11T01:49:02.851Z,3.80
2018-04-11T01:50:02.911Z,2.30
2018-04-11T01:51:02.969Z,2.90
2018-04-11T01:52:03.027Z,3.00
2018-04-11T01:53:03.088Z,2.50
2018-04-11T01:54:03.145Z,4.40
2018-04-11T01:55:03.205Z,2.50
2018-04-11T01:56:03.263Z,2.60
2018-04-11T01:57:03.325Z,3.20
2018-04-11T01:58:03.630Z,3.10
2018-04-11T01:59:03.439Z,1.90
2018-04-11T02:00:03.498Z,3.40
2018-04-11T02:01:03.558Z,2.70
2018-04-11T02:02:03.615Z,2.80
2018-04-11T02:03:03.674Z,2.60
2018-04-11T02:04:03.734Z,2.50
2018-04-11T02:05:03.791Z,3.30
2018-04-11T02:06:03.851Z,2.50
2018-04-11T02:07:03.909Z,3.60
2018-04-11T02:08:03.967Z,3.20
2018-04-11T02:09:04.027Z,2.00
2018-04-11T02:10:04.086Z,2.90
2018-04-11T02:11:04.143Z,3.70
2018-04-11T02:12:04.201Z,3.10
2018-04-11T02:13:04.259Z,2.60
2018-04-11T02:14:04.318Z,2.50
2018-04-11T02:15:04.376Z,3.50
2018-04-11T02:16:04.435Z,4.20
2018-04-11T02:17:04.493Z,2.90
2018-04-11T02:18:04.552Z,4.30
2018-04-11T02:19:04.610Z,3.70
2018-04-11T02:20:04.674Z,3.30
2018-04-11T02:21:04.726Z,4.30
2018-04-11T02:22:04.784Z,4.80
2018-04-11T02:23:04.849Z,4.00
2018-04-11T02:24:04.917Z,6.90
2018-04-11T02:25:05.581Z,4.70
2018-04-11T02:26:05.552Z,2.50
2018-04-11T02:27:05.631Z,1.70
2018-04-11T02:28:05.469Z,2.50
2018-04-11T02:29:05.685Z,2.30
2018-04-11T02:30:05.268Z,4.10
2018-04-11T02:31:05.311Z,2.90
2018-04-11T02:32:05.388Z,3.80
2018-04-11T02:33:05.579Z,3.20
2018-04-11T02:34:05.489Z,2.70
2018-04-11T02:35:05.547Z,4.30
2018-04-11T02:36:06.084Z,4.00
2018-04-11T02:37:06.272Z,5.00
2018-04-11T02:38:06.256Z,4.10
2018-04-11T02:39:05.880Z,4.20
2018-04-11T02:40:05.839Z,4.10
2018-04-11T02:41:06.509Z,5.40
2018-04-11T02:42:06.505Z,3.60
2018-04-11T02:43:06.015Z,2.90
2018-04-11T02:44:06.078Z,3.20
2018-04-11T02:45:06.132Z,3.90
2018-04-11T02:46:06.191Z,3.30
2018-04-11T02:47:06.258Z,3.90
2018-04-11T02:48:06.342Z,5.40
2018-04-11T02:49:06.365Z,4.70
2018-04-11T02:50:06.429Z,4.90
2018-04-11T02:51:06.481Z,4.10
2018-04-11T02:52:06.538Z,5.00
2018-04-11T02:53:06.600Z,6.70
2018-04-11T02:54:06.656Z,4.40
2018-04-11T02:55:06.717Z,3.50
2018-04-11T02:56:06.799Z,6.10
2018-04-11T02:57:06.833Z,4.20
2018-04-11T02:58:06.890Z,6.50
2018-04-11T02:59:06.947Z,4.60
2018-04-11T03:00:07.007Z,4.30
2018-04-11T03:01:07.064Z,4.30
2018-04-11T03:02:07.126Z,4.30
2018-04-11T03:03:07.184Z,4.50
2018-04-11T03:04:07.241Z,5.30
2018-04-11T03:05:07.299Z,6.50
2018-04-11T03:06:07.361Z,6.20
2018-04-11T03:07:07.416Z,5.40
2018-04-11T03:08:07.628Z,4.70
2018-04-11T03:09:07.535Z,4.30
2018-04-11T03:10:07.602Z,4.70
2018-04-11T03:11:07.651Z,6.40
2018-04-11T03:12:07.708Z,5.70
2018-04-11T03:13:07.768Z,3.60
2018-04-11T03:14:07.826Z,4.90
2018-04-11T03:15:07.885Z,4.80
2018-04-11T03:16:07.943Z,4.80
2018-04-11T03:17:08.002Z,5.60
2018-04-11T03:18:08.061Z,4.40
2018-04-11T03:19:08.119Z,5.40
2018-04-11T03:20:08.178Z,4.60
2018-04-11T03:21:08.235Z,6.20
2018-04-11T03:22:08.294Z,5.20
2018-04-11T03:23:08.351Z,7.20
2018-04-11T03:24:08.410Z,5.10
2018-04-11T03:25:08.469Z,6.10
2018-04-11T03:26:08.540Z,5.30
2018-04-11T03:27:08.583Z,5.30
2018-04-11T03:28:08.642Z,6.30
2018-04-11T03:29:08.701Z,4.50
2018-04-11T03:30:08.763Z,4.80
2018-04-11T03:31:08.818Z,5.90
2018-04-11T03:32:08.875Z,5.00
2018-04-11T03:33:08.934Z,4.10
2018-04-11T03:34:08.993Z,4.80
2018-04-11T03:35:09.201Z,4.80
2018-04-11T03:36:09.109Z,3.70
2018-04-11T03:37:09.167Z,4.20
2018-04-11T03:38:09.227Z,5.80
2018-04-11T03:39:09.283Z,5.30
2018-04-11T03:40:09.345Z,4.30
2018-04-11T03:41:09.400Z,5.90
2018-04-11T03:42:09.459Z,4.40
2018-04-11T03:43:09.517Z,5.10
2018-04-11T03:44:09.575Z,4.20
2018-04-11T03:45:09.634Z,4.50
2018-04-11T03:46:09.692Z,3.60
2018-04-11T03:47:09.752Z,4.70
2018-04-11T03:48:09.808Z,4.50
2018-04-11T03:49:09.866Z,5.50
2018-04-11T03:50:09.925Z,3.60
2018-04-11T03:51:09.983Z,4.40
2018-04-11T03:52:10.042Z,4.50
2018-04-11T03:53:10.132Z,5.00
2018-04-11T03:54:10.159Z,4.40
2018-04-11T03:55:10.214Z,5.00
2018-04-11T03:56:10.275Z,4.90
2018-04-11T03:57:10.332Z,5.10
2018-04-11T03:58:10.540Z,4.60
2018-04-11T03:59:10.458Z,4.00
2018-04-11T04:00:10.506Z,5.70
2018-04-11T04:01:10.567Z,6.60
2018-04-11T04:02:10.625Z,4.60
2018-04-11T04:03:10.930Z,4.20
2018-04-11T04:04:10.791Z,6.00
2018-04-11T04:05:10.798Z,4.80
2018-04-11T04:06:10.859Z,5.40
2018-04-11T04:07:10.958Z,4.20
2018-04-11T04:08:11.019Z,4.50
2018-04-11T04:09:11.127Z,5.90
2018-04-11T04:10:11.144Z,5.80
2018-04-11T04:11:11.203Z,4.60
2018-04-11T04:12:11.258Z,5.20
2018-04-11T04:13:11.263Z,4.80
2018-04-11T04:14:11.335Z,5.10
2018-04-11T04:15:11.377Z,4.50
2018-04-11T04:16:11.438Z,6.70
2018-04-11T04:17:11.496Z,5.90
2018-04-11T04:18:11.554Z,6.40
2018-04-11T04:19:11.643Z,4.80
2018-04-11T04:20:11.729Z,6.20
2018-04-11T04:21:11.736Z,4.80
2018-04-11T04:22:11.787Z,4.40
2018-04-11T04:23:11.847Z,6.00
2018-04-11T04:24:11.913Z,5.60
2018-04-11T04:25:12.407Z,4.60
2018-04-11T04:26:12.465Z,4.30
2018-04-11T04:27:12.090Z,5.60
2018-04-11T04:28:12.155Z,5.60
2018-04-11T04:29:12.193Z,6.00
2018-04-11T04:30:12.252Z,5.90
2018-04-11T04:31:12.328Z,4.90
2018-04-11T04:32:12.366Z,6.30
2018-04-11T04:33:12.425Z,7.00
2018-04-11T04:34:12.484Z,5.70
2018-04-11T04:35:12.541Z,5.80
2018-04-11T04:36:12.598Z,5.90
2018-04-11T04:37:12.656Z,6.40
2018-04-11T04:38:12.714Z,5.70
2018-04-11T04:39:12.773Z,5.40
2018-04-11T04:40:12.830Z,6.50
2018-04-11T04:41:12.889Z,6.10
2018-04-11T04:42:12.948Z,7.20
2018-04-11T04:43:13.008Z,7.00
2018-04-11T04:44:13.064Z,5.20
2018-04-11T04:45:13.124Z,5.20
2018-04-11T04:46:13.183Z,8.20
2018-04-11T04:47:13.237Z,7.40
2018-04-11T04:48:13.297Z,6.00
2018-04-11T04:49:13.605Z,5.50
2018-04-11T04:50:13.413Z,6.80
2018-04-11T04:51:13.510Z,6.70
2018-04-11T04:52:13.533Z,6.60
2018-04-11T04:53:13.588Z,5.90
2018-04-11T04:54:13.646Z,6.80
2018-04-11T04:55:13.706Z,6.10
2018-04-11T04:56:13.760Z,6.30
2018-04-11T04:57:13.820Z,6.60
2018-04-11T04:58:13.879Z,5.90
2018-04-11T04:59:13.936Z,7.30
2018-04-11T05:00:13.993Z,7.80
2018-04-11T05:01:14.053Z,6.00
2018-04-11T05:02:14.110Z,7.20
2018-04-11T05:03:14.169Z,6.20
2018-04-11T05:04:14.226Z,8.30
2018-04-11T05:05:14.369Z,7.00
2018-04-11T05:06:14.374Z,5.60
2018-04-11T05:07:14.437Z,5.90
2018-04-11T05:08:14.460Z,5.90
2018-04-11T05:09:14.549Z,5.70
2018-04-11T05:10:14.607Z,5.90
2018-04-11T05:11:14.864Z,5.80
2018-04-11T05:12:14.723Z,5.80
2018-04-11T05:13:14.783Z,6.30
2018-04-11T05:14:14.831Z,5.90
2018-04-11T05:15:14.868Z,7.00
2018-04-11T05:16:14.927Z,6.20
2018-04-11T05:17:15.322Z,6.00
2018-04-11T05:18:15.089Z,7.50
2018-04-11T05:19:15.101Z,6.00
2018-04-11T05:20:15.190Z,4.90
2018-04-11T05:21:15.248Z,5.60
2018-04-11T05:22:15.278Z,6.40
2018-04-11T05:23:15.334Z,5.50
2018-04-11T05:24:15.769Z,6.50
2018-04-11T05:25:15.456Z,5.90
2018-04-11T05:26:15.915Z,6.40
2018-04-11T05:27:15.627Z,6.40
2018-04-11T05:28:15.710Z,5.60
2018-04-11T05:29:15.686Z,6.00
2018-04-11T05:30:16.312Z,7.50
2018-04-11T05:31:15.836Z,6.00
2018-04-11T05:32:16.095Z,5.50
2018-04-11T05:33:15.934Z,9.30
2018-04-11T05:34:15.973Z,7.20
2018-04-11T05:35:16.083Z,6.10
2018-04-11T05:36:16.091Z,6.20
2018-04-11T05:37:16.757Z,6.10
2018-04-11T05:38:16.208Z,5.90
2018-04-11T05:39:16.264Z,6.60
2018-04-11T05:40:16.327Z,6.20
2018-04-11T05:41:16.383Z,7.10
2018-04-11T05:42:16.452Z,7.90
2018-04-11T05:43:16.529Z,7.80
2018-04-11T05:44:16.557Z,6.70
2018-04-11T05:45:16.615Z,9.90
2018-04-11T05:46:16.756Z,8.60
2018-04-11T05:47:16.731Z,7.50
2018-04-11T05:48:16.792Z,7.40
2018-04-11T05:49:16.847Z,6.90
2018-04-11T05:50:16.906Z,9.00
2018-04-11T05:51:16.965Z,7.20
2018-04-11T05:52:17.022Z,8.40
2018-04-11T05:53:17.113Z,6.10
2018-04-11T05:54:17.184Z,6.70
2018-04-11T05:55:17.196Z,8.10
2018-04-11T05:56:17.292Z,6.90
2018-04-11T05:57:17.316Z,5.50
2018-04-11T05:58:17.461Z,6.80
2018-04-11T05:59:17.461Z,7.10
2018-04-11T06:00:17.522Z,6.40
2018-04-11T06:01:17.546Z,7.20
2018-04-11T06:02:17.606Z,5.20
2018-04-11T06:03:17.664Z,7.50
2018-04-11T06:04:17.722Z,5.60
2018-04-11T06:05:17.781Z,6.30
2018-04-11T06:06:17.841Z,5.40
2018-04-11T06:07:17.897Z,6.10
2018-04-11T06:08:17.955Z,8.30
2018-04-11T06:09:18.014Z,6.50
2018-04-11T06:10:18.072Z,7.50
2018-04-11T06:11:18.134Z,8.50
2018-04-11T06:12:18.193Z,7.80
2018-04-11T06:13:18.249Z,8.30
2018-04-11T06:14:18.557Z,10.80
2018-04-11T06:15:18.363Z,6.00
2018-04-11T06:16:18.423Z,5.70
2018-04-11T06:17:18.479Z,6.60
2018-04-11T06:18:18.540Z,5.70
2018-04-11T06:19:18.596Z,6.60
2018-04-11T06:20:18.688Z,6.80
2018-04-11T06:21:18.748Z,6.70
2018-04-11T06:22:18.808Z,7.20
2018-04-11T06:23:18.832Z,7.20
2018-04-11T06:24:18.889Z,7.80
2018-04-11T06:25:18.948Z,8.90
2018-04-11T06:26:19.024Z,8.60
2018-04-11T06:27:19.092Z,9.90
2018-04-11T06:28:19.146Z,10.50
2018-04-11T06:29:19.207Z,11.40
2018-04-11T06:30:19.467Z,10.30
2018-04-11T06:31:19.326Z,9.20
2018-04-11T06:32:19.371Z,9.50
2018-04-11T06:33:19.415Z,11.30
2018-04-11T06:34:19.474Z,10.40
2018-04-11T06:35:19.532Z,9.90
2018-04-11T06:36:19.591Z,9.40
2018-04-11T06:37:19.652Z,12.00
2018-04-11T06:38:19.729Z,11.90
2018-04-11T06:39:19.800Z,8.80
2018-04-11T06:40:19.825Z,10.60
2018-04-11T06:41:19.884Z,11.20
2018-04-11T06:42:19.941Z,10.40
2018-04-11T06:43:20.354Z,8.90
2018-04-11T06:44:20.059Z,10.90
2018-04-11T06:45:20.132Z,9.90
2018-04-11T06:46:20.210Z,12.00
2018-04-11T06:47:20.275Z,11.70
2018-04-11T06:48:20.325Z,10.20
2018-04-11T06:49:20.441Z,10.40
2018-04-11T06:50:20.446Z,10.20
2018-04-11T06:51:20.505Z,11.40
2018-04-11T06:52:20.556Z,10.10
2018-04-11T06:53:20.623Z,10.50
2018-04-11T06:54:20.650Z,10.70
2018-04-11T06:55:20.787Z,10.40
2018-04-11T06:56:20.767Z,11.30
2018-04-11T06:57:20.829Z,11.10
2018-04-11T06:58:20.955Z,8.60
2018-04-11T06:59:20.976Z,11.30
2018-04-11T07:00:21.029Z,12.00
2018-04-11T07:01:21.095Z,12.00
2018-04-11T07:02:21.160Z,9.40
2018-04-11T07:03:21.184Z,11.30
2018-04-11T07:04:21.239Z,11.70
2018-04-11T07:05:21.300Z,11.60
2018-04-11T07:06:21.387Z,10.40
2018-04-11T07:07:21.417Z,13.60
2018-04-11T07:08:21.478Z,10.70
2018-04-11T07:09:21.537Z,11.70
2018-04-11T07:10:21.597Z,9.80
2018-04-11T07:11:21.674Z,9.90
2018-04-11T07:12:21.715Z,10.10
2018-04-11T07:13:21.776Z,12.30
2018-04-11T07:14:21.836Z,10.10
2018-04-11T07:15:21.919Z,12.10
2018-04-11T07:16:21.976Z,10.00
2018-04-11T07:17:22.016Z,10.80
2018-04-11T07:18:22.075Z,11.40
2018-04-11T07:19:22.135Z,9.40
2018-04-11T07:20:22.204Z,10.70
2018-04-11T07:21:22.585Z,11.40
2018-04-11T07:22:22.319Z,11.70
2018-04-11T07:23:22.393Z,10.30
2018-04-11T07:24:22.431Z,12.50
2018-04-11T07:25:22.867Z,10.60
2018-04-11T07:26:22.551Z,11.50
2018-04-11T07:27:22.609Z,10.90
2018-04-11T07:28:22.669Z,10.60
2018-04-11T07:29:22.729Z,10.20
2018-04-11T07:30:23.692Z,10.90
2018-04-11T07:31:22.849Z,9.40
2018-04-11T07:32:22.910Z,11.40
2018-04-11T07:33:22.969Z,10.50
2018-04-11T07:34:23.028Z,10.80
2018-04-11T07:35:23.092Z,10.00
2018-04-11T07:36:23.147Z,12.00
2018-04-11T07:37:23.207Z,13.00
2018-04-11T07:38:23.266Z,11.40
2018-04-11T07:39:23.326Z,10.70
2018-04-11T07:40:23.415Z,12.00
2018-04-11T07:41:23.523Z,9.70
2018-04-11T07:42:23.507Z,12.80
2018-04-11T07:43:24.091Z,11.80
2018-04-11T07:44:23.624Z,9.60
2018-04-11T07:45:23.684Z,9.80
2018-04-11T07:46:23.744Z,9.70
2018-04-11T07:47:23.803Z,10.50
2018-04-11T07:48:23.863Z,9.40
2018-04-11T07:49:23.923Z,10.60
2018-04-11T07:50:23.982Z,11.20
2018-04-11T07:51:24.041Z,9.10
2018-04-11T07:52:24.102Z,10.70
2018-04-11T07:53:24.161Z,10.60
2018-04-11T07:54:24.221Z,9.90
2018-04-11T07:55:24.279Z,9.80
2018-04-11T07:56:24.339Z,9.70
2018-04-11T07:57:24.400Z,10.30
2018-04-11T07:58:24.460Z,10.50
2018-04-11T07:59:24.517Z,9.60
2018-04-11T08:00:24.579Z,12.60
2018-04-11T08:01:24.639Z,10.40
2018-04-11T08:02:24.699Z,10.20
2018-04-11T08:03:24.802Z,11.10
2018-04-11T08:04:24.819Z,9.70
2018-04-11T08:05:24.877Z,9.60
2018-04-11T08:06:24.938Z,10.30
2018-04-11T08:07:24.997Z,8.80
2018-04-11T08:08:25.057Z,10.00
2018-04-11T08:09:25.116Z,8.70
2018-04-11T08:10:25.178Z,9.90
2018-04-11T08:11:25.236Z,8.80
2018-04-11T08:12:25.295Z,8.50
2018-04-11T08:13:25.355Z,9.90
2018-04-11T08:14:25.416Z,10.90
2018-04-11T08:15:25.474Z,14.70
2018-04-11T08:16:25.533Z,10.60
2018-04-11T08:17:25.611Z,11.70
2018-04-11T08:18:25.654Z,13.10
2018-04-11T08:19:25.712Z,10.20
2018-04-11T08:20:25.773Z,8.80
2018-04-11T08:21:25.834Z,9.90
2018-04-11T08:22:25.895Z,10.00
2018-04-11T08:23:25.952Z,11.30
2018-04-11T08:24:26.013Z,10.40
2018-04-11T08:25:26.072Z,11.20
2018-04-11T08:26:26.132Z,10.10
2018-04-11T08:27:26.196Z,8.80
2018-04-11T08:28:26.250Z,13.00
2018-04-11T08:29:26.319Z,9.30
2018-04-11T08:30:26.370Z,9.00
2018-04-11T08:31:26.440Z,11.30
2018-04-11T08:32:26.512Z,9.20
2018-04-11T08:33:26.549Z,10.00
2018-04-11T08:34:26.610Z,9.70
2018-04-11T08:35:26.670Z,11.10
2018-04-11T08:36:26.728Z,10.30
2018-04-11T08:37:26.788Z,9.30
2018-04-11T08:38:26.849Z,12.00
2018-04-11T08:39:26.909Z,11.70
2018-04-11T08:40:27.001Z,9.40
2018-04-11T08:41:27.064Z,9.70
2018-04-11T08:42:27.088Z,10.10
2018-04-11T08:43:27.181Z,8.40
2018-04-11T08:44:27.243Z,10.50
2018-04-11T08:45:27.268Z,9.60
2018-04-11T08:46:27.327Z,14.50
2018-04-11T08:47:27.388Z,10.90
2018-04-11T08:48:27.448Z,9.10
2018-04-11T08:49:27.508Z,10.20
2018-04-11T08:50:27.567Z,10.50
2018-04-11T08:51:27.627Z,13.50
2018-04-11T08:52:27.691Z,8.30
2018-04-11T08:53:27.749Z,8.40
2018-04-11T08:54:27.809Z,9.20
2018-04-11T08:55:27.873Z,11.40
2018-04-11T08:56:27.929Z,9.20
2018-04-11T08:57:27.989Z,11.50
2018-04-11T08:58:28.053Z,11.80
2018-04-11T08:59:28.109Z,8.40
2018-04-11T09:00:28.172Z,10.20
2018-04-11T09:01:28.232Z,9.70
2018-04-11T09:02:28.318Z,9.20
2018-04-11T09:03:28.353Z,10.80
2018-04-11T09:04:28.414Z,8.80
2018-04-11T09:05:28.529Z,8.70
2018-04-11T09:06:28.537Z,8.50
2018-04-11T09:07:28.595Z,11.00
2018-04-11T09:08:28.656Z,10.70
2018-04-11T09:09:28.716Z,7.60
2018-04-11T09:10:28.777Z,8.60
2018-04-11T09:11:28.840Z,9.90
2018-04-11T09:12:28.903Z,9.10
2018-04-11T09:13:28.960Z,10.30
2018-04-11T09:14:29.023Z,10.40
2018-04-11T09:15:29.084Z,8.80
2018-04-11T09:16:29.142Z,8.70
2018-04-11T09:17:29.205Z,9.00
2018-04-11T09:18:29.265Z,7.90
2018-04-11T09:19:29.329Z,10.30
2018-04-11T09:20:30.046Z,10.70
2018-04-11T09:21:29.452Z,10.00
2018-04-11T09:22:29.513Z,10.90
2018-04-11T09:23:29.571Z,9.90
2018-04-11T09:24:29.634Z,10.30
2018-04-11T09:25:29.695Z,9.60
2018-04-11T09:26:29.757Z,8.90
2018-04-11T09:27:29.818Z,10.20
2018-04-11T09:28:29.879Z,8.50
2018-04-11T09:29:29.956Z,8.20
2018-04-11T09:30:30.003Z,8.20
2018-04-11T09:31:30.063Z,8.30
2018-04-11T09:32:30.124Z,8.60
2018-04-11T09:33:30.187Z,7.90
2018-04-11T09:34:30.248Z,8.00
2018-04-11T09:35:30.308Z,10.00
2018-04-11T09:36:30.615Z,7.50
2018-04-11T09:37:31.045Z,7.60
2018-04-11T09:38:30.494Z,7.50
2018-04-11T09:39:31.315Z,9.10
2018-04-11T09:40:30.618Z,12.90
2018-04-11T09:41:30.679Z,8.00
2018-04-11T09:42:30.741Z,8.70
2018-04-11T09:43:30.801Z,9.30
2018-04-11T09:44:30.864Z,10.80
2018-04-11T09:45:30.923Z,8.90
2018-04-11T09:46:30.987Z,8.50
2018-04-11T09:47:31.047Z,9.80
2018-04-11T09:48:31.109Z,8.60
2018-04-11T09:49:31.169Z,7.80
2018-04-11T09:50:31.231Z,8.60
2018-04-11T09:51:31.294Z,10.50
2018-04-11T09:52:31.354Z,7.70
2018-04-11T09:53:31.416Z,8.40
2018-04-11T09:54:31.478Z,7.90
2018-04-11T09:55:31.542Z,7.80
2018-04-11T09:56:31.602Z,8.20
2018-04-11T09:57:31.663Z,7.60
2018-04-11T09:58:31.749Z,8.20
2018-04-11T09:59:31.785Z,7.20
2018-04-11T10:00:32.166Z,8.20
2018-04-11T10:01:31.909Z,9.00
2018-04-11T10:02:31.972Z,7.50
2018-04-11T10:03:32.032Z,8.50
2018-04-11T10:04:32.096Z,7.80
2018-04-11T10:05:32.157Z,7.80
2018-04-11T10:06:32.220Z,8.00
2018-04-11T10:07:32.281Z,8.40
2018-04-11T10:08:32.347Z,8.00
2018-04-11T10:09:32.405Z,7.20
2018-04-11T10:10:32.468Z,10.30
2018-04-11T10:11:32.531Z,7.20
2018-04-11T10:12:32.601Z,7.10
2018-04-11T10:13:32.659Z,6.00
2018-04-11T10:14:32.719Z,6.30
2018-04-11T10:15:32.785Z,8.10
2018-04-11T10:16:32.847Z,6.10
2018-04-11T10:17:32.909Z,6.70
2018-04-11T10:18:32.974Z,7.20
2018-04-11T10:19:33.037Z,7.50
2018-04-11T10:20:33.736Z,9.10
2018-04-11T10:21:33.835Z,5.90
2018-04-11T10:22:33.863Z,8.10
2018-04-11T10:23:33.294Z,7.30
2018-04-11T10:24:33.358Z,7.90
2018-04-11T10:25:33.436Z,7.10
2018-04-11T10:26:33.487Z,7.50
2018-04-11T10:27:33.551Z,7.60
2018-04-11T10:28:33.623Z,6.90
2018-04-11T10:29:33.682Z,6.50
2018-04-11T10:30:33.748Z,7.70
2018-04-11T10:31:33.861Z,6.90
2018-04-11T10:32:33.878Z,7.00
2018-04-11T10:33:33.941Z,7.30
2018-04-11T10:34:34.007Z,6.90
2018-04-11T10:35:34.072Z,6.70
2018-04-11T10:36:34.138Z,5.80
2018-04-11T10:37:34.202Z,5.80
2018-04-11T10:38:34.268Z,6.30
2018-04-11T10:39:34.333Z,6.30
2018-04-11T10:40:34.397Z,8.70
2018-04-11T10:41:34.865Z,6.60
2018-04-11T10:42:34.529Z,5.30
2018-04-11T10:43:34.593Z,4.60
2018-04-11T10:44:34.728Z,6.40
2018-04-11T10:45:34.727Z,6.20
2018-04-11T10:46:34.792Z,5.60
2018-04-11T10:47:34.858Z,5.70
2018-04-11T10:48:34.972Z,5.40
2018-04-11T10:49:34.992Z,4.90
2018-04-11T10:50:35.060Z,5.80
2018-04-11T10:51:35.126Z,8.40
2018-04-11T10:52:35.195Z,5.70
2018-04-11T10:53:35.263Z,5.60
2018-04-11T10:54:35.328Z,5.40
2018-04-11T10:55:35.397Z,3.90
2018-04-11T10:56:35.466Z,2.70
2018-04-11T10:57:35.533Z,2.10
2018-04-11T10:58:35.599Z,2.40
2018-04-11T10:59:35.667Z,3.50
2018-04-11T11:00:35.734Z,4.10
2018-04-11T11:01:35.802Z,5.00
2018-04-11T11:02:35.868Z,4.10
2018-04-11T11:03:35.939Z,3.50
2018-04-11T11:04:36.003Z,5.20
2018-04-11T11:05:36.071Z,3.20
2018-04-11T11:06:36.139Z,4.60
2018-04-11T11:07:36.206Z,3.10
2018-04-11T11:08:36.274Z,3.60
2018-04-11T11:09:36.343Z,4.40
2018-04-11T11:10:36.412Z,2.90
2018-04-11T11:11:36.478Z,4.00
2018-04-11T11:12:36.545Z,4.50
2018-04-11T11:13:36.615Z,3.70
2018-04-11T11:14:36.684Z,3.80
2018-04-11T11:15:36.752Z,2.90
2018-04-11T11:16:36.820Z,3.60
2018-04-11T11:17:36.889Z,3.70
2018-04-11T11:18:36.959Z,4.40
2018-04-11T11:19:37.026Z,3.40
2018-04-11T11:20:37.097Z,4.40
2018-04-11T11:21:37.167Z,4.10
2018-04-11T11:22:37.237Z,5.40
2018-04-11T11:23:37.307Z,5.70
2018-04-11T11:24:37.379Z,4.30
2018-04-11T11:25:37.455Z,4.20
2018-04-11T11:26:37.518Z,3.80
2018-04-11T11:27:37.587Z,3.80
2018-04-11T11:28:37.658Z,4.60
2018-04-11T11:29:37.728Z,4.10
2018-04-11T11:30:37.801Z,4.10
2018-04-11T11:31:37.869Z,4.30
2018-04-11T11:32:37.942Z,3.40
2018-04-11T11:33:38.013Z,4.00
2018-04-11T11:34:38.085Z,2.60
2018-04-11T11:35:38.156Z,5.90
2018-04-11T11:36:38.227Z,2.50
2018-04-11T11:37:38.299Z,2.50
2018-04-11T11:38:38.377Z,4.90
2018-04-11T11:39:38.441Z,3.30
2018-04-11T11:40:38.512Z,3.10
2018-04-11T11:41:38.584Z,3.90
2018-04-11T11:42:38.755Z,3.30
2018-04-11T11:43:38.763Z,2.70
2018-04-11T11:44:38.843Z,2.90
2018-04-11T11:45:38.911Z,4.20
2018-04-11T11:46:39.033Z,4.40
2018-04-11T11:47:39.011Z,5.70
2018-04-11T11:48:39.083Z,2.30
2018-04-11T11:49:39.155Z,2.20
2018-04-11T11:50:39.226Z,1.90
2018-04-11T11:51:39.297Z,3.20
2018-04-11T11:52:39.370Z,3.00
2018-04-11T11:53:39.441Z,5.20
2018-04-11T11:54:39.514Z,5.60
2018-04-11T11:55:39.597Z,3.50
2018-04-11T11:56:39.657Z,3.50
2018-04-11T11:57:39.729Z,2.00
2018-04-11T11:58:39.809Z,1.90
2018-04-11T11:59:39.875Z,4.30
2018-04-11T12:00:39.949Z,3.40
2018-04-11T12:01:40.021Z,2.80
2018-04-11T12:02:40.092Z,2.20
2018-04-11T12:03:40.165Z,2.00
2018-04-11T12:04:40.237Z,2.50
2018-04-11T12:05:40.310Z,3.10
2018-04-11T12:06:40.385Z,3.30
2018-04-11T12:07:40.496Z,2.10
2018-04-11T12:08:40.528Z,4.20
2018-04-11T12:09:40.600Z,3.00
2018-04-11T12:10:40.673Z,1.60
2018-04-11T12:11:40.743Z,2.80
2018-04-11T12:12:40.817Z,3.60
2018-04-11T12:13:40.891Z,2.30
2018-04-11T12:14:40.962Z,2.80
2018-04-11T12:15:41.034Z,3.00
2018-04-11T12:16:41.123Z,2.40
2018-04-11T12:17:41.178Z,2.70
2018-04-11T12:18:41.253Z,2.10
2018-04-11T12:19:41.358Z,1.90
2018-04-11T12:20:41.399Z,3.10
2018-04-11T12:21:41.473Z,2.70
2018-04-11T12:22:41.544Z,2.20
2018-04-11T12:23:41.620Z,2.20
2018-04-11T12:24:41.689Z,2.20
2018-04-11T12:25:42.177Z,3.00
2018-04-11T12:26:41.838Z,3.30
2018-04-11T12:27:41.913Z,2.90
2018-04-11T12:28:42.001Z,3.00
2018-04-11T12:29:42.063Z,2.20
2018-04-11T12:30:42.149Z,2.70
2018-04-11T12:31:42.205Z,2.80
2018-04-11T12:32:42.279Z,2.40
2018-04-11T12:33:42.353Z,2.50
2018-04-11T12:34:42.428Z,2.60
2018-04-11T12:35:42.501Z,2.60
2018-04-11T12:36:42.576Z,2.50
2018-04-11T12:37:42.650Z,2.00
2018-04-11T12:38:42.725Z,1.90
2018-04-11T12:39:43.636Z,2.10
2018-04-11T12:40:42.873Z,2.50
2018-04-11T12:41:42.946Z,2.60
2018-04-11T12:42:43.023Z,2.30
2018-04-11T12:43:43.095Z,2.30
2018-04-11T12:44:43.171Z,2.00
2018-04-11T12:45:43.244Z,3.60
2018-04-11T12:46:43.323Z,2.50
2018-04-11T12:47:43.395Z,2.10
2018-04-11T12:48:43.481Z,2.20
2018-04-11T12:49:43.544Z,2.00
2018-04-11T12:50:43.618Z,2.40
2018-04-11T12:51:43.693Z,3.20
2018-04-11T12:52:43.767Z,2.50
2018-04-11T12:53:43.841Z,2.80
2018-04-11T12:54:43.917Z,2.10
2018-04-11T12:55:44.018Z,2.10
2018-04-11T12:56:44.693Z,2.70
2018-04-11T12:57:44.138Z,2.00
2018-04-11T12:58:44.215Z,2.40
2018-04-11T12:59:44.821Z,3.20
2018-04-11T13:00:44.361Z,3.50
2018-04-11T13:01:44.435Z,2.60
2018-04-11T13:02:44.508Z,3.10
2018-04-11T13:03:44.585Z,2.10
2018-04-11T13:04:44.659Z,3.40
2018-04-11T13:05:44.730Z,2.80
2018-04-11T13:06:44.806Z,4.20
2018-04-11T13:07:44.876Z,3.10
2018-04-11T13:08:44.951Z,2.30
2018-04-11T13:09:45.024Z,3.50
2018-04-11T13:10:45.663Z,2.40
2018-04-11T13:11:45.171Z,2.70
2018-04-11T13:12:45.245Z,2.50
2018-04-11T13:13:45.728Z,3.20
2018-04-11T13:14:45.390Z,2.70
2018-04-11T13:15:45.464Z,6.90